Time;durP1;ratioP1;P1;durP2;ratioP2;P2;SDS_P1;SDS_P2;PMS_P1;PMS_P2;Temp;Humidity;BMP_temperature;BMP_pressure;BME280_temperature;BME280_humidity;BME280_pressure;Samples;Min_cycle;Max_cycle;Signal;HPM_P1;HPM_P2
2023/08/06 00:00:08;;;;;;;6.63;4.40;;;13.20;99.90;;;;;;4838051;29;20114;-95
2023/08/06 00:02:48;;;;;;;6.15;4.40;;;13.60;99.90;;;;;;4845592;29;20110;-96
2023/08/06 00:05:23;;;;;;;5.95;4.70;;;13.50;99.90;;;;;;4844501;29;20052;-93
2023/08/06 00:07:54;;;;;;;6.20;5.00;;;13.50;99.90;;;;;;4818555;29;20053;-95
2023/08/06 00:10:23;;;;;;;6.13;5.18;;;13.60;99.90;;;;;;4846617;29;20124;-96
2023/08/06 00:12:51;;;;;;;5.38;4.88;;;13.50;99.90;;;;;;4832964;29;20085;-95
2023/08/06 00:15:20;;;;;;;5.95;4.88;;;13.50;99.90;;;;;;4852777;29;20064;-96
2023/08/06 00:17:56;;;;;;;7.85;4.60;;;13.50;99.90;;;;;;4846099;29;20045;-94
2023/08/06 00:20:45;;;;;;;;;;;13.50;99.90;;;;;;4845820;29;20083;-95
2023/08/06 00:23:39;;;;;;;6.25;4.35;;;13.50;99.90;;;;;;4864264;29;19919;-95
2023/08/06 00:26:08;;;;;;;7.72;4.38;;;13.50;99.90;;;;;;4861065;29;20061;-94
2023/08/06 00:29:24;;;;;;;8.35;5.00;;;13.50;99.90;;;;;;4861076;29;20049;-95
2023/08/06 00:32:21;;;;;;;5.55;4.50;;;13.60;99.90;;;;;;4848232;29;20564;-95
2023/08/06 00:35:22;;;;;;;7.55;4.90;;;13.40;99.90;;;;;;4821690;29;20060;-95
2023/08/06 00:37:59;;;;;;;5.60;4.53;;;13.20;99.90;;;;;;4802506;29;20905;-95
2023/08/06 00:40:33;;;;;;;8.50;4.82;;;13.50;99.90;;;;;;4795717;29;20050;-94
2023/08/06 00:43:04;;;;;;;6.13;5.40;;;13.50;99.90;;;;;;4787999;29;20490;-96
2023/08/06 00:45:37;;;;;;;5.60;5.03;;;13.40;99.90;;;;;;4812762;29;20064;-95
2023/08/06 00:48:10;;;;;;;7.97;5.68;;;13.40;99.90;;;;;;4812773;29;20429;-94
2023/08/06 00:51:00;;;;;;;7.10;5.43;;;13.30;99.90;;;;;;4812853;29;20065;-94
2023/08/06 00:56:50;;;;;;;8.15;5.55;;;13.40;99.90;;;;;;4811861;29;20083;-96
2023/08/06 00:59:24;;;;;;;6.72;5.25;;;13.00;99.90;;;;;;4836209;29;21523;-94
2023/08/06 01:05:11;;;;;;;7.88;5.38;;;13.40;99.90;;;;;;4764187;30;20047;-95
2023/08/06 01:08:08;;;;;;;7.50;5.55;;;13.30;99.90;;;;;;4864156;29;20057;-95
2023/08/06 01:11:27;;;;;;;8.38;6.03;;;13.60;99.90;;;;;;4836311;29;20052;-95
2023/08/06 01:14:52;;;;;;;7.40;5.70;;;13.30;99.90;;;;;;4846307;29;20101;-95
2023/08/06 01:17:23;;;;;;;7.07;5.55;;;13.40;99.90;;;;;;4817907;29;20132;-94
2023/08/06 01:20:06;;;;;;;9.02;6.38;;;13.40;99.90;;;;;;4857677;29;20059;-95
2023/08/06 01:22:57;;;;;;;9.30;6.25;;;13.30;99.90;;;;;;4851416;29;20140;-94
2023/08/06 01:25:33;;;;;;;8.10;5.88;;;13.40;99.90;;;;;;4847376;29;20528;-95
2023/08/06 01:28:32;;;;;;;8.05;6.10;;;13.50;99.90;;;;;;4863372;29;20037;-96
2023/08/06 01:31:26;;;;;;;9.85;6.45;;;13.40;99.90;;;;;;4840918;29;20084;-94
2023/08/06 01:34:05;;;;;;;8.57;6.43;;;13.50;99.90;;;;;;4840686;29;20049;-95
2023/08/06 01:36:37;;;;;;;9.43;7.07;;;13.60;99.90;;;;;;4832827;29;20556;-95
2023/08/06 01:39:22;;;;;;;8.95;7.45;;;13.40;99.90;;;;;;4843191;29;20056;-93
2023/08/06 01:41:50;;;;;;;9.82;7.28;;;13.50;99.90;;;;;;4854961;29;20060;-95
2023/08/06 01:44:17;;;;;;;12.85;7.22;;;13.40;99.90;;;;;;4832726;29;20147;-94
2023/08/06 01:47:07;;;;;;;10.60;7.03;;;13.10;99.90;;;;;;4835310;29;20049;-95
2023/08/06 01:49:33;;;;;;;8.98;7.13;;;13.40;99.90;;;;;;4840348;29;20084;-94
2023/08/06 01:52:05;;;;;;;11.70;7.28;;;13.40;99.90;;;;;;4840556;29;20030;-95
2023/08/06 01:54:42;;;;;;;10.48;7.57;;;13.60;99.90;;;;;;4862066;29;20084;-96
2023/08/06 01:57:35;;;;;;;10.02;7.38;;;13.60;99.90;;;;;;4847018;29;20516;-95
2023/08/06 02:00:13;;;;;;;10.93;7.80;;;13.60;99.90;;;;;;4844850;29;20065;-94
2023/08/06 02:05:38;;;;;;;;;;;13.60;99.90;;;;;;4849612;29;20397;-94
2023/08/06 02:08:06;;;;;;;10.57;8.30;;;13.40;99.90;;;;;;4862724;29;20015;-95
2023/08/06 02:10:38;;;;;;;10.90;8.00;;;13.40;99.90;;;;;;4847309;29;20086;-93
2023/08/06 02:13:12;;;;;;;9.73;7.38;;;13.40;99.90;;;;;;4847873;29;20044;-95
2023/08/06 02:16:16;;;;;;;10.90;7.75;;;13.80;99.90;;;;;;4828352;29;20045;-95
2023/08/06 02:19:11;;;;;;;11.02;8.40;;;13.40;99.90;;;;;;4868523;29;20076;-95
2023/08/06 02:21:40;;;;;;;11.38;7.90;;;13.50;99.90;;;;;;4833004;29;20140;-95
2023/08/06 02:24:26;;;;;;;10.85;8.07;;;13.50;99.90;;;;;;4860733;29;20089;-95
2023/08/06 02:27:04;;;;;;;8.60;7.75;;;13.80;99.90;;;;;;4826330;29;20097;-95
2023/08/06 02:29:42;;;;;;;10.88;7.88;;;13.60;99.90;;;;;;4841052;29;20052;-96
2023/08/06 02:32:19;;;;;;;10.07;8.50;;;13.50;99.90;;;;;;4848436;29;20044;-94
2023/08/06 02:35:04;;;;;;;8.90;8.00;;;13.50;99.90;;;;;;4846746;29;20041;-96
2023/08/06 02:37:42;;;;;;;8.90;8.00;;;13.70;99.90;;;;;;4833069;29;20041;-94
2023/08/06 02:40:13;;;;;;;9.52;8.15;;;14.10;99.90;;;;;;4836725;29;20067;-95
2023/08/06 02:42:58;;;;;;;9.15;7.93;;;13.70;99.90;;;;;;4859422;29;20049;-95
2023/08/06 02:45:32;;;;;;;9.15;8.07;;;13.30;99.90;;;;;;4847288;29;20057;-94
2023/08/06 02:48:52;;;;;;;;;;;;;;;;;;;;;
2023/08/06 02:54:51;;;;;;;10.15;8.82;;;13.30;99.90;;;;;;4842132;29;20056;-96
2023/08/06 02:57:23;;;;;;;9.43;7.88;;;13.60;99.90;;;;;;4839030;29;20052;-95
2023/08/06 03:00:07;;;;;;;8.95;7.63;;;13.60;99.90;;;;;;4835646;29;20045;-95
2023/08/06 03:02:48;;;;;;;9.80;7.72;;;14.00;99.90;;;;;;4842593;29;20056;-95
2023/08/06 03:05:22;;;;;;;9.20;7.47;;;13.60;99.90;;;;;;4825932;29;20397;-95
2023/08/06 03:07:51;;;;;;;9.95;7.75;;;13.60;99.90;;;;;;4829297;29;20055;-95
2023/08/06 03:10:51;;;;;;;9.13;8.05;;;14.20;99.90;;;;;;4850392;29;20080;-96
2023/08/06 03:13:23;;;;;;;12.57;7.57;;;13.10;99.90;;;;;;4836067;29;20068;-95
2023/08/06 03:16:16;;;;;;;9.40;8.18;;;13.80;99.90;;;;;;4848155;29;20064;-95
2023/08/06 03:18:52;;;;;;;8.63;7.72;;;13.70;99.90;;;;;;4848144;29;20081;-95
2023/08/06 03:21:33;;;;;;;;;;;;;;;;;;;;;
2023/08/06 03:24:12;;;;;;;7.78;6.97;;;13.60;99.90;;;;;;4841359;29;20049;-95
2023/08/06 03:26:52;;;;;;;8.60;7.32;;;13.80;99.90;;;;;;4865758;29;20037;-96
2023/08/06 03:29:38;;;;;;;9.05;6.78;;;13.80;99.90;;;;;;4847561;29;20033;-94
2023/08/06 03:32:21;;;;;;;8.07;7.10;;;13.60;99.90;;;;;;4857099;29;20051;-95
2023/08/06 03:35:19;;;;;;;10.10;7.15;;;13.70;99.90;;;;;;4856560;29;20052;-95
2023/08/06 03:41:04;;;;;;;9.85;7.00;;;13.80;99.90;;;;;;4870234;29;20114;-95
2023/08/06 03:43:33;;;;;;;7.85;6.10;;;14.20;99.90;;;;;;4838904;29;20040;-95
2023/08/06 03:46:04;;;;;;;7.35;6.65;;;14.20;99.90;;;;;;4850410;29;20044;-95
2023/08/06 03:48:36;;;;;;;9.80;7.18;;;13.40;99.90;;;;;;4850784;29;20098;-95
2023/08/06 03:51:11;;;;;;;7.03;5.50;;;13.70;99.90;;;;;;4873720;29;20532;-95
2023/08/06 03:53:37;;;;;;;6.90;6.07;;;13.70;99.90;;;;;;4860892;29;20473;-94
2023/08/06 03:56:18;;;;;;;7.63;5.95;;;13.70;99.90;;;;;;4864252;29;20045;-95
2023/08/06 03:58:55;;;;;;;8.43;6.22;;;13.80;99.90;;;;;;4850344;29;20055;-95
2023/08/06 04:01:38;;;;;;;6.75;5.90;;;13.80;99.90;;;;;;4845123;29;20131;-94
2023/08/06 04:04:14;;;;;;;6.75;5.45;;;13.80;99.90;;;;;;4824175;29;20140;-96
2023/08/06 04:06:51;;;;;;;10.45;5.57;;;13.60;99.90;;;;;;4832726;29;20081;-95
2023/08/06 04:09:17;;;;;;;6.57;5.78;;;13.70;99.90;;;;;;4832336;29;20133;-95
2023/08/06 04:12:04;;;;;;;7.40;5.82;;;13.90;99.90;;;;;;4843610;29;20060;-95
2023/08/06 04:14:55;;;;;;;;;;;;;;;;;;;;;
2023/08/06 04:17:40;;;;;;;7.00;6.07;;;14.50;99.90;;;;;;4862255;29;20660;-94
2023/08/06 04:23:24;;;;;;;6.78;4.88;;;13.70;99.90;;;;;;4880230;29;20661;-95
2023/08/06 04:25:57;;;;;;;6.25;5.50;;;13.80;99.90;;;;;;4845633;29;20045;-95
2023/08/06 04:29:20;;;;;;;7.15;5.35;;;13.90;99.90;;;;;;4862982;29;20548;-95
2023/08/06 04:32:08;;;;;;;6.53;5.60;;;13.50;99.90;;;;;;4867526;29;20048;-96
2023/08/06 04:34:52;;;;;;;8.57;5.60;;;13.80;99.90;;;;;;4845096;29;20477;-94
2023/08/06 04:37:27;;;;;;;6.95;6.03;;;13.80;99.90;;;;;;4850825;29;20049;-95
2023/08/06 04:39:53;;;;;;;8.35;5.70;;;;;;;;;;4861019;29;20106;-95
2023/08/06 04:42:33;;;;;;;6.55;5.45;;;13.80;99.90;;;;;;4847039;29;20051;-95
2023/08/06 04:45:23;;;;;;;7.18;5.68;;;13.80;99.90;;;;;;4849141;29;20413;-96
2023/08/06 04:47:49;;;;;;;6.95;5.38;;;13.90;99.90;;;;;;4849351;29;20033;-94
2023/08/06 04:50:24;;;;;;;6.82;5.90;;;13.90;99.90;;;;;;4850318;29;20041;-95
2023/08/06 04:52:55;;;;;;;8.85;5.97;;;13.80;99.90;;;;;;4847260;29;20504;-96
2023/08/06 04:58:53;;;;;;;7.22;5.20;;;13.80;99.90;;;;;;4814766;29;20069;-96
2023/08/06 05:01:25;;;;;;;6.25;5.65;;;13.60;99.90;;;;;;4776754;29;20058;-96
2023/08/06 05:08:24;;;;;;;5.80;5.15;;;13.90;99.90;;;;;;4851392;29;20060;-96
2023/08/06 05:11:02;;;;;;;7.20;5.25;;;13.50;99.90;;;;;;4831572;29;20053;-95
2023/08/06 05:13:53;;;;;;;5.82;4.72;;;13.90;99.90;;;;;;4838296;29;20811;-96
2023/08/06 05:16:45;;;;;;;8.15;4.70;;;13.80;99.90;;;;;;4832967;29;20113;-96
2023/08/06 05:20:01;;;;;;;5.10;4.60;;;14.20;99.90;;;;;;4818038;29;20058;-95
2023/08/06 05:22:39;;;;;;;5.50;5.00;;;13.90;99.90;;;;;;4850691;29;20088;-95
2023/08/06 05:25:13;;;;;;;5.63;5.13;;;13.90;99.90;;;;;;4814221;29;20053;-94
2023/08/06 05:27:44;;;;;;;5.15;4.65;;;14.00;99.90;;;;;;4827544;29;20465;-96
2023/08/06 05:30:16;;;;;;;5.93;5.05;;;14.10;99.90;;;;;;4818047;29;20041;-95
2023/08/06 05:32:50;;;;;;;6.20;5.20;;;14.20;99.90;;;;;;4841991;29;20033;-95
2023/08/06 05:35:34;;;;;;;5.28;4.47;;;14.20;99.90;;;;;;4853435;29;20093;-95
2023/08/06 05:38:03;;;;;;;4.93;4.40;;;14.30;99.90;;;;;;4832124;29;20048;-95
2023/08/06 05:40:29;;;;;;;6.10;4.68;;;14.80;99.90;;;;;;4829853;29;20049;-95
2023/08/06 05:43:00;;;;;;;5.28;4.78;;;14.80;99.90;;;;;;4844227;29;20136;-95
2023/08/06 05:45:35;;;;;;;5.07;4.40;;;15.40;99.90;;;;;;4813649;29;20049;-95
2023/08/06 05:48:32;;;;;;;5.03;4.30;;;16.00;99.90;;;;;;4844816;29;20065;-96
2023/08/06 05:51:00;;;;;;;4.55;3.40;;;17.30;99.90;;;;;;4813718;29;20479;-95
2023/08/06 05:53:40;;;;;;;4.07;3.50;;;18.50;99.90;;;;;;4814679;29;20045;-96
2023/08/06 05:56:16;;;;;;;4.05;3.25;;;19.30;99.90;;;;;;4836185;29;20045;-95
2023/08/06 05:59:09;;;;;;;4.82;3.05;;;20.50;99.90;;;;;;4822088;29;20056;-95
2023/08/06 06:01:38;;;;;;;5.80;3.30;;;19.50;99.90;;;;;;4823186;29;20053;-95
2023/08/06 06:04:39;;;;;;;;;;;;;;;;;;;;;
2023/08/06 06:24:51;;;;;;;3.97;3.58;;;15.90;99.90;;;;;;4780913;29;20085;-93
2023/08/06 06:31:29;;;;;;;5.70;3.10;;;15.70;99.90;;;;;;4783838;30;20034;-95
2023/08/06 06:33:55;;;;;;;4.15;2.90;;;15.90;99.90;;;;;;4797683;29;20102;-88
2023/08/06 06:36:21;;;;;;;3.63;3.03;;;16.00;99.90;;;;;;4847410;29;20048;-89
2023/08/06 06:38:49;;;;;;;4.78;3.08;;;16.10;99.90;;;;;;4825263;29;20053;-85
2023/08/06 06:41:15;;;;;;;3.67;3.30;;;16.10;99.90;;;;;;4840203;29;20041;-86
2023/08/06 06:43:43;;;;;;;4.47;3.28;;;16.10;99.90;;;;;;4812658;29;20043;-87
2023/08/06 06:46:09;;;;;;;4.60;3.13;;;16.00;99.90;;;;;;4830544;29;20053;-92
2023/08/06 06:48:35;;;;;;;4.07;3.60;;;16.00;99.90;;;;;;4844419;29;20111;-86
2023/08/06 06:51:01;;;;;;;4.75;3.38;;;16.00;99.90;;;;;;4835317;29;20038;-87
2023/08/06 06:53:29;;;;;;;3.85;3.45;;;16.00;99.90;;;;;;4816494;29;20076;-93
2023/08/06 06:56:05;;;;;;;3.95;3.55;;;16.00;99.90;;;;;;4844269;29;20033;-88
2023/08/06 06:58:31;;;;;;;4.10;2.95;;;16.10;99.90;;;;;;4814867;29;20051;-87
2023/08/06 07:00:57;;;;;;;3.50;3.08;;;16.30;99.90;;;;;;4837790;29;20589;-88
2023/08/06 07:03:23;;;;;;;5.13;3.67;;;16.40;99.90;;;;;;4813959;29;20042;-88
2023/08/06 07:05:49;;;;;;;4.28;3.38;;;16.70;99.90;;;;;;4831107;29;20113;-88
2023/08/06 07:08:15;;;;;;;3.55;3.25;;;17.00;99.90;;;;;;4827678;29;20099;-87
2023/08/06 07:10:42;;;;;;;4.07;3.63;;;17.20;99.90;;;;;;4859652;29;20076;-89
2023/08/06 07:13:08;;;;;;;3.43;3.13;;;17.50;99.90;;;;;;4844868;29;20045;-90
2023/08/06 07:15:34;;;;;;;3.78;2.70;;;17.70;99.90;;;;;;4812671;29;20049;-90
2023/08/06 07:18:00;;;;;;;3.90;3.45;;;17.70;99.90;;;;;;4837100;29;20045;-87
2023/08/06 07:20:25;;;;;;;3.72;3.25;;;17.70;99.90;;;;;;4860351;29;20055;-89
2023/08/06 07:22:51;;;;;;;3.55;2.95;;;17.90;99.90;;;;;;4860327;29;20068;-86
2023/08/06 07:25:17;;;;;;;3.28;2.85;;;18.00;99.90;;;;;;4849420;29;20397;-87
2023/08/06 07:27:43;;;;;;;3.83;3.10;;;18.10;99.90;;;;;;4854707;29;20081;-89
2023/08/06 07:30:09;;;;;;;4.03;2.80;;;18.20;99.90;;;;;;4827204;29;20103;-88
2023/08/06 07:32:35;;;;;;;2.90;2.60;;;18.30;99.90;;;;;;4847881;29;20108;-91
2023/08/06 07:35:04;;;;;;;5.38;2.88;;;18.50;99.90;;;;;;4819639;29;20097;-87
2023/08/06 07:37:30;;;;;;;3.55;2.85;;;18.60;99.90;;;;;;4815092;29;20508;-87
2023/08/06 07:39:56;;;;;;;3.08;2.78;;;18.80;99.90;;;;;;4844135;29;20057;-89
2023/08/06 07:42:22;;;;;;;4.10;2.58;;;19.00;99.90;;;;;;4846309;29;20057;-88
2023/08/06 07:44:56;;;;;;;4.00;2.57;;;19.00;99.90;;;;;;4847510;29;20041;-88
2023/08/06 07:47:22;;;;;;;3.30;2.55;;;19.00;99.90;;;;;;4832025;29;20149;-87
2023/08/06 07:49:50;;;;;;;4.00;2.30;;;19.00;99.90;;;;;;4828064;29;20678;-86
2023/08/06 07:52:16;;;;;;;3.28;2.63;;;;;;;;;;4845699;29;20092;-86
2023/08/06 07:54:42;;;;;;;4.10;3.03;;;19.00;99.90;;;;;;4841078;29;20037;-87
2023/08/06 07:57:08;;;;;;;4.97;2.92;;;19.00;99.90;;;;;;4826949;29;20051;-89
2023/08/06 07:59:33;;;;;;;3.90;2.35;;;19.10;99.90;;;;;;4820398;29;20467;-88
2023/08/06 08:02:00;;;;;;;2.92;2.42;;;19.50;99.90;;;;;;4847598;29;20677;-85
2023/08/06 08:04:26;;;;;;;2.58;2.30;;;19.90;99.90;;;;;;4845171;29;20052;-88
2023/08/06 08:06:52;;;;;;;3.55;2.60;;;20.30;99.90;;;;;;4837993;29;20033;-90
2023/08/06 08:09:18;;;;;;;2.80;2.50;;;20.50;99.90;;;;;;4828855;29;20063;-87
2023/08/06 08:11:44;;;;;;;2.58;2.38;;;20.70;99.90;;;;;;4822159;29;20034;-89
2023/08/06 08:14:09;;;;;;;2.63;2.42;;;21.10;99.90;;;;;;4813039;29;20049;-88
2023/08/06 08:16:38;;;;;;;3.15;2.70;;;21.30;99.90;;;;;;4842709;29;20097;-87
2023/08/06 08:19:03;;;;;;;5.75;2.97;;;21.50;99.90;;;;;;4855878;29;20045;-89
2023/08/06 08:21:29;;;;;;;3.78;2.58;;;21.70;99.90;;;;;;4829718;29;20844;-93
2023/08/06 08:23:55;;;;;;;4.53;2.47;;;22.00;99.90;;;;;;4818606;29;20484;-92
2023/08/06 08:26:21;;;;;;;3.33;2.00;;;22.50;99.90;;;;;;4823413;29;20053;-88
2023/08/06 08:28:47;;;;;;;3.20;2.00;;;22.70;99.90;;;;;;4842520;29;20068;-85
2023/08/06 08:31:12;;;;;;;2.80;2.33;;;22.70;99.90;;;;;;4841438;29;20033;-86
2023/08/06 08:33:38;;;;;;;2.83;2.47;;;22.80;99.90;;;;;;4818769;29;20049;-86
2023/08/06 08:36:04;;;;;;;2.28;1.90;;;22.80;99.90;;;;;;4837307;29;20045;-85
2023/08/06 08:38:30;;;;;;;2.80;2.17;;;22.70;99.90;;;;;;4819725;29;20556;-85
2023/08/06 08:40:56;;;;;;;4.50;2.50;;;22.80;99.90;;;;;;4841979;29;20079;-86
2023/08/06 08:43:22;;;;;;;2.58;2.20;;;22.70;99.90;;;;;;4852591;29;20762;-85
2023/08/06 08:45:52;;;;;;;3.50;1.98;;;22.40;99.90;;;;;;4846693;29;20045;-86
2023/08/06 08:48:19;;;;;;;5.07;2.28;;;22.10;99.90;;;;;;4856593;29;20045;-86
2023/08/06 08:50:47;;;;;;;3.45;1.90;;;22.10;99.90;;;;;;4821359;29;20072;-86
2023/08/06 08:53:17;;;;;;;2.60;2.03;;;21.90;99.90;;;;;;4853434;29;20121;-85
2023/08/06 08:55:49;;;;;;;2.75;2.17;;;22.00;99.90;;;;;;4836248;29;20044;-86
2023/08/06 08:58:15;;;;;;;2.95;1.80;;;22.00;99.90;;;;;;4832651;29;20045;-86
2023/08/06 09:00:46;;;;;;;2.90;1.98;;;22.30;99.90;;;;;;4826971;29;20127;-86
2023/08/06 09:03:12;;;;;;;1.20;1.02;;;22.40;99.90;;;;;;4864461;29;20041;-86
2023/08/06 09:05:45;;;;;;;1.40;1.00;;;22.50;99.90;;;;;;4821242;29;20048;-85
2023/08/06 09:08:14;;;;;;;2.72;1.27;;;22.30;99.90;;;;;;4851776;29;20513;-85
2023/08/06 09:10:42;;;;;;;3.67;1.30;;;22.30;99.90;;;;;;4835397;29;20041;-85
2023/08/06 09:13:08;;;;;;;6.72;1.85;;;22.10;99.90;;;;;;4836142;29;20045;-85
2023/08/06 09:15:34;;;;;;;1.48;1.10;;;22.00;99.90;;;;;;4808889;29;20478;-86
2023/08/06 09:18:00;;;;;;;1.98;0.88;;;21.90;99.90;;;;;;4823570;29;20047;-85
2023/08/06 09:20:26;;;;;;;1.30;0.90;;;21.70;99.90;;;;;;4828146;29;20718;-84
2023/08/06 09:22:55;;;;;;;2.70;1.07;;;21.50;99.90;;;;;;4827596;29;20049;-85
2023/08/06 09:25:26;;;;;;;2.88;1.00;;;21.40;99.90;;;;;;4839159;29;20053;-86
2023/08/06 09:28:03;;;;;;;1.02;0.88;;;21.40;99.90;;;;;;4852962;29;20493;-90
2023/08/06 09:30:37;;;;;;;2.53;0.90;;;21.30;99.90;;;;;;4842643;29;20060;-89
2023/08/06 09:33:03;;;;;;;1.10;0.77;;;21.40;99.90;;;;;;4859472;29;20064;-88
2023/08/06 09:35:30;;;;;;;2.17;0.90;;;21.40;99.90;;;;;;4823168;29;20673;-89
2023/08/06 09:38:10;;;;;;;2.78;1.20;;;21.30;99.90;;;;;;4840559;29;20056;-84
2023/08/06 09:40:36;;;;;;;2.65;0.95;;;21.30;99.90;;;;;;4826420;29;20048;-85
2023/08/06 09:43:02;;;;;;;1.95;0.80;;;21.20;99.90;;;;;;4833555;29;20071;-85
2023/08/06 09:45:34;;;;;;;1.27;0.90;;;21.10;99.90;;;;;;4848908;29;20045;-85
2023/08/06 09:48:03;;;;;;;1.65;0.80;;;21.00;99.90;;;;;;4861675;29;20041;-85
2023/08/06 09:50:39;;;;;;;1.60;0.82;;;21.00;99.90;;;;;;4848763;29;20045;-86
2023/08/06 09:53:06;;;;;;;1.40;0.80;;;21.00;99.90;;;;;;4835148;29;20059;-86
2023/08/06 09:55:33;;;;;;;1.63;0.90;;;20.90;99.90;;;;;;4832203;29;20048;-84
2023/08/06 09:57:59;;;;;;;;;;;20.90;99.90;;;;;;4838117;29;20071;-85
2023/08/06 10:00:25;;;;;;;1.10;0.90;;;20.90;99.90;;;;;;4848458;29;19928;-85
2023/08/06 10:02:55;;;;;;;1.30;0.75;;;21.00;99.90;;;;;;4818276;29;20476;-85
2023/08/06 10:05:25;;;;;;;1.45;0.80;;;20.90;99.90;;;;;;4834274;29;20135;-85
2023/08/06 10:07:51;;;;;;;1.27;0.77;;;20.90;99.90;;;;;;4828916;29;20195;-85
2023/08/06 10:10:19;;;;;;;1.38;0.85;;;20.90;99.90;;;;;;4832361;29;20041;-86
2023/08/06 10:12:54;;;;;;;0.85;0.70;;;20.90;99.90;;;;;;4850372;29;20068;-85
2023/08/06 10:15:28;;;;;;;1.88;0.70;;;20.90;99.90;;;;;;4850527;29;20045;-85
2023/08/06 10:17:58;;;;;;;1.35;0.80;;;21.00;99.90;;;;;;4821154;29;20058;-91
2023/08/06 10:20:24;;;;;;;1.85;0.80;;;21.10;99.90;;;;;;4841122;29;20049;-91
2023/08/06 10:23:04;;;;;;;1.00;0.77;;;21.10;99.90;;;;;;4843876;29;20050;-91
2023/08/06 10:25:34;;;;;;;0.95;0.80;;;21.20;99.90;;;;;;4858244;29;20126;-91
2023/08/06 10:28:00;;;;;;;1.30;0.70;;;21.30;99.90;;;;;;4827233;29;20072;-91
2023/08/06 10:30:28;;;;;;;2.13;0.70;;;21.20;99.90;;;;;;4853787;29;20037;-91
2023/08/06 10:33:04;;;;;;;2.55;0.93;;;21.20;99.90;;;;;;4836788;29;20326;-91
2023/08/06 10:35:30;;;;;;;1.13;0.65;;;21.30;99.90;;;;;;4822310;29;20041;-90
2023/08/06 10:38:03;;;;;;;1.83;0.70;;;21.30;99.90;;;;;;4856744;29;20516;-92
2023/08/06 10:40:30;;;;;;;1.88;0.85;;;21.30;99.90;;;;;;4830375;29;20044;-91
2023/08/06 10:42:59;;;;;;;1.35;0.55;;;21.40;99.90;;;;;;4814929;29;20100;-93
2023/08/06 10:45:28;;;;;;;1.23;0.70;;;21.40;99.90;;;;;;4826147;29;20077;-91
2023/08/06 10:47:56;;;;;;;1.83;0.80;;;21.40;99.90;;;;;;4841893;29;20588;-92
2023/08/06 10:50:22;;;;;;;1.75;0.65;;;21.50;99.90;;;;;;4829678;29;20479;-91
2023/08/06 10:52:48;;;;;;;1.30;0.77;;;21.50;99.90;;;;;;4844797;29;20128;-92
2023/08/06 10:55:21;;;;;;;2.28;0.70;;;21.50;99.90;;;;;;4843877;29;20408;-91
2023/08/06 10:57:47;;;;;;;1.00;0.80;;;21.50;99.90;;;;;;4860100;29;20044;-93
2023/08/06 11:00:13;;;;;;;1.40;0.77;;;21.50;99.90;;;;;;4850745;29;20040;-93
2023/08/06 11:02:39;;;;;;;1.48;0.80;;;21.50;99.90;;;;;;4816629;29;20045;-93
2023/08/06 11:05:09;;;;;;;3.25;1.05;;;21.60;99.90;;;;;;4831229;29;20045;-93
2023/08/06 11:07:35;;;;;;;1.50;0.85;;;21.50;99.90;;;;;;4844909;29;20040;-92
2023/08/06 11:10:09;;;;;;;1.30;0.68;;;21.40;99.90;;;;;;4831864;29;20041;-91
2023/08/06 11:12:35;;;;;;;1.20;0.77;;;21.30;99.90;;;;;;4860983;29;20037;-90
2023/08/06 11:15:02;;;;;;;1.38;0.70;;;21.00;99.90;;;;;;4854427;29;20040;-90
2023/08/06 11:17:29;;;;;;;;;;;21.10;99.90;;;;;;4847061;29;20041;-89
2023/08/06 11:19:54;;;;;;;1.50;0.80;;;21.00;99.90;;;;;;4830577;29;20342;-88
2023/08/06 11:22:21;;;;;;;1.45;0.70;;;21.00;99.90;;;;;;4832617;29;20045;-88
2023/08/06 11:24:50;;;;;;;0.93;0.60;;;20.90;99.90;;;;;;4842857;29;20049;-87
2023/08/06 11:27:17;;;;;;;1.00;0.80;;;20.90;99.90;;;;;;4845481;29;20831;-88
2023/08/06 11:29:44;;;;;;;1.35;0.77;;;20.80;99.90;;;;;;4861987;29;20041;-90
2023/08/06 11:32:10;;;;;;;;;;;20.90;99.90;;;;;;4847916;29;20524;-88
2023/08/06 11:34:36;;;;;;;1.00;0.73;;;20.90;99.90;;;;;;4846120;29;19999;-88
2023/08/06 11:37:06;;;;;;;1.80;1.13;;;21.00;99.90;;;;;;4831375;29;20052;-87
2023/08/06 11:39:36;;;;;;;1.70;0.80;;;21.10;99.90;;;;;;4857464;29;20064;-86
2023/08/06 11:42:06;;;;;;;1.50;0.73;;;21.00;99.90;;;;;;4831187;29;20053;-89
2023/08/06 11:44:36;;;;;;;10.75;1.52;;;20.90;99.90;;;;;;4825515;29;20079;-86
2023/08/06 11:47:05;;;;;;;5.95;1.20;;;20.80;99.90;;;;;;4855006;29;20045;-87
2023/08/06 11:49:43;;;;;;;5.35;1.23;;;20.60;99.90;;;;;;4826757;29;20044;-87
2023/08/06 11:52:12;;;;;;;4.18;0.80;;;20.60;99.90;;;;;;4841244;29;20119;-87
2023/08/06 11:54:38;;;;;;;4.13;1.15;;;20.60;99.90;;;;;;4860667;29;20045;-90
2023/08/06 11:57:07;;;;;;;2.30;0.80;;;20.60;99.90;;;;;;4817938;29;20140;-92
2023/08/06 11:59:33;;;;;;;1.85;0.80;;;20.50;99.90;;;;;;4829808;29;20437;-92
2023/08/06 12:02:09;;;;;;;3.05;0.90;;;20.50;99.90;;;;;;4845709;29;20040;-91
2023/08/06 12:05:02;;;;;;;3.00;0.90;;;20.50;99.90;;;;;;4846113;29;20045;-92
2023/08/06 12:07:32;;;;;;;1.52;1.00;;;20.40;99.90;;;;;;4832755;29;20521;-92
2023/08/06 12:09:59;;;;;;;2.03;0.80;;;20.40;99.90;;;;;;4854772;29;20100;-92
2023/08/06 12:12:25;;;;;;;2.25;1.13;;;20.40;99.90;;;;;;4830759;29;20037;-92
2023/08/06 12:14:50;;;;;;;1.33;0.70;;;20.40;99.90;;;;;;4862481;29;20053;-91
2023/08/06 12:17:16;;;;;;;2.47;0.80;;;20.40;99.90;;;;;;4830635;29;20068;-92
2023/08/06 12:19:46;;;;;;;2.47;0.82;;;20.50;99.90;;;;;;4829783;29;20508;-91
2023/08/06 12:22:13;;;;;;;3.60;0.85;;;20.60;99.90;;;;;;4843859;29;20069;-91
2023/08/06 12:24:40;;;;;;;;;;;20.60;99.90;;;;;;4829340;29;20117;-91
2023/08/06 12:27:05;;;;;;;4.13;0.70;;;20.40;99.90;;;;;;4829617;29;20351;-89
2023/08/06 12:29:31;;;;;;;4.18;0.77;;;20.50;99.90;;;;;;4845864;29;20068;-88
2023/08/06 12:31:57;;;;;;;2.67;0.85;;;20.40;99.90;;;;;;4839067;29;20057;-89
2023/08/06 12:34:23;;;;;;;2.15;0.70;;;20.40;99.90;;;;;;4828908;29;20128;-89
2023/08/06 12:36:48;;;;;;;2.58;0.80;;;20.30;99.90;;;;;;4815768;29;20049;-88
2023/08/06 12:39:14;;;;;;;2.10;0.90;;;20.40;99.90;;;;;;4844026;29;20040;-88
2023/08/06 12:41:40;;;;;;;0.88;0.65;;;20.30;99.90;;;;;;4845963;29;20076;-90
2023/08/06 12:44:06;;;;;;;3.80;0.80;;;20.40;99.90;;;;;;4860648;29;20084;-89
2023/08/06 12:46:31;;;;;;;1.33;0.82;;;20.40;99.90;;;;;;4845653;29;20669;-88
2023/08/06 12:48:57;;;;;;;2.92;0.80;;;20.40;99.90;;;;;;4829285;29;20077;-88
2023/08/06 12:51:24;;;;;;;0.80;0.63;;;20.30;99.90;;;;;;4813809;29;20053;-85
2023/08/06 12:53:50;;;;;;;0.90;0.60;;;20.30;99.90;;;;;;4850707;29;20160;-86
2023/08/06 12:56:16;;;;;;;1.95;0.70;;;20.30;99.90;;;;;;4836445;29;20061;-85
2023/08/06 12:58:42;;;;;;;1.85;0.82;;;20.30;99.90;;;;;;4804998;29;20103;-85
2023/08/06 13:01:08;;;;;;;6.80;1.77;;;20.30;99.90;;;;;;4804897;29;20120;-85
2023/08/06 13:03:33;;;;;;;7.70;1.60;;;20.20;99.90;;;;;;4836997;29;20545;-83
2023/08/06 13:05:59;;;;;;;3.40;1.00;;;20.10;99.90;;;;;;4833948;29;20037;-84
2023/08/06 13:08:25;;;;;;;1.63;0.80;;;20.00;99.90;;;;;;4826777;29;21118;-85
2023/08/06 13:10:51;;;;;;;1.80;0.85;;;20.00;99.90;;;;;;4806537;29;20444;-88
2023/08/06 13:13:16;;;;;;;2.45;0.90;;;20.10;99.90;;;;;;4845302;29;20044;-87
2023/08/06 13:15:42;;;;;;;1.23;0.85;;;19.90;99.90;;;;;;4822045;29;20049;-84
2023/08/06 13:18:08;;;;;;;1.65;0.60;;;19.90;99.90;;;;;;4822365;29;20569;-86
2023/08/06 13:20:34;;;;;;;1.30;0.60;;;19.90;99.90;;;;;;4826778;29;20061;-86
2023/08/06 13:23:01;;;;;;;1.13;0.65;;;19.90;99.90;;;;;;4810606;29;20629;-88
2023/08/06 13:25:28;;;;;;;1.45;0.70;;;19.90;99.90;;;;;;4809748;29;20493;-87
2023/08/06 13:27:54;;;;;;;6.63;1.58;;;20.00;99.90;;;;;;4823752;29;20132;-87
2023/08/06 13:30:20;;;;;;;2.03;0.70;;;20.00;99.90;;;;;;4839529;29;20042;-85
2023/08/06 13:32:46;;;;;;;1.05;0.70;;;19.90;99.90;;;;;;4828422;29;20039;-85
2023/08/06 13:35:12;;;;;;;1.73;0.80;;;19.90;99.90;;;;;;4835795;29;20049;-83
2023/08/06 13:37:38;;;;;;;0.80;0.50;;;20.00;99.90;;;;;;4818328;29;20100;-84
2023/08/06 13:40:04;;;;;;;0.80;0.60;;;20.00;99.90;;;;;;4802894;29;20045;-88
2023/08/06 13:42:32;;;;;;;1.38;0.70;;;19.90;99.90;;;;;;4822588;29;20049;-84
2023/08/06 13:45:02;;;;;;;1.52;0.80;;;20.00;99.90;;;;;;4807281;29;20060;-86
2023/08/06 13:47:28;;;;;;;1.02;0.75;;;19.90;99.90;;;;;;4822404;29;20065;-85
2023/08/06 13:49:54;;;;;;;0.77;0.60;;;19.80;99.90;;;;;;4837690;29;20426;-86
2023/08/06 13:52:20;;;;;;;1.27;0.70;;;19.80;99.90;;;;;;4836573;29;22287;-85
2023/08/06 13:54:46;;;;;;;0.90;0.60;;;19.80;99.90;;;;;;4820209;29;20131;-85
2023/08/06 13:57:12;;;;;;;1.48;0.90;;;19.60;99.90;;;;;;4820938;29;20132;-86
2023/08/06 13:59:38;;;;;;;0.82;0.60;;;19.60;99.90;;;;;;4839191;29;20056;-87
2023/08/06 14:02:04;;;;;;;1.70;0.80;;;19.50;99.90;;;;;;4837241;29;20052;-85
2023/08/06 14:04:29;;;;;;;3.58;0.90;;;19.50;99.90;;;;;;4828326;29;20489;-88
2023/08/06 14:06:56;;;;;;;1.23;0.77;;;19.50;99.90;;;;;;4844157;29;20544;-84
2023/08/06 14:09:22;;;;;;;2.40;0.82;;;19.50;99.90;;;;;;4834487;29;20056;-84